createdAt,value
2022-10-01T00:01:16.946Z,9.47
2022-10-01T00:03:44.509Z,9.10
2022-10-01T00:06:20.032Z,9.07
2022-10-01T00:08:49.517Z,8.77
2022-10-01T00:11:26.496Z,11.00
2022-10-01T00:13:54.535Z,11.70
2022-10-01T00:16:26.649Z,10.80
2022-10-01T00:18:54.225Z,9.77
2022-10-01T00:21:26.942Z,9.27
2022-10-01T00:23:55.726Z,7.97
2022-10-01T00:26:27.576Z,9.87
2022-10-01T00:28:57.092Z,9.50
2022-10-01T00:31:24.742Z,9.83
2022-10-01T00:33:55.976Z,8.83
2022-10-01T00:36:22.806Z,10.47
2022-10-01T00:38:49.368Z,8.77
2022-10-01T00:41:18.312Z,11.30
2022-10-01T00:43:48.107Z,9.20
2022-10-01T00:46:27.097Z,9.80
2022-10-01T00:49:02.384Z,7.70
2022-10-01T00:51:33.320Z,10.53
2022-10-01T00:54:13.625Z,9.50
2022-10-01T00:56:41.646Z,9.07
2022-10-01T00:59:09.449Z,10.87
2022-10-01T01:01:37.991Z,8.20
2022-10-01T01:04:16.112Z,12.10
2022-10-01T01:06:44.006Z,11.07
2022-10-01T01:09:10.719Z,9.00
2022-10-01T01:11:57.783Z,9.00
2022-10-01T01:14:32.808Z,13.87
2022-10-01T01:17:08.632Z,8.83
2022-10-01T01:19:54.034Z,9.43
2022-10-01T01:22:24.938Z,8.93
2022-10-01T01:25:23.761Z,9.47
2022-10-01T01:28:26.368Z,8.73
2022-10-01T01:30:58.135Z,10.67
2022-10-01T01:33:27.583Z,9.80
2022-10-01T01:36:08.105Z,8.20
2022-10-01T01:38:42.466Z,8.17
2022-10-01T01:41:11.507Z,8.63
2022-10-01T01:43:42.725Z,9.20
2022-10-01T01:46:10.864Z,8.87
2022-10-01T01:48:41.681Z,9.13
2022-10-01T01:51:46.371Z,10.47
2022-10-01T01:54:13.113Z,8.53
2022-10-01T01:56:39.731Z,9.27
2022-10-01T01:59:08.417Z,8.97
2022-10-01T02:01:39.567Z,7.63
2022-10-01T02:04:25.596Z,10.40
2022-10-01T02:07:15.167Z,8.07
2022-10-01T02:09:47.451Z,8.77
2022-10-01T02:12:39.079Z,8.97
2022-10-01T02:15:22.449Z,11.90
2022-10-01T02:17:59.529Z,8.20
2022-10-01T02:20:45.656Z,9.03
2022-10-01T02:23:19.168Z,8.93
2022-10-01T02:25:51.178Z,10.63
2022-10-01T02:28:22.799Z,8.33
2022-10-01T02:30:51.934Z,9.87
2022-10-01T02:33:25.473Z,9.83
2022-10-01T02:35:54.822Z,9.80
2022-10-01T02:38:24.047Z,9.67
2022-10-01T02:40:54.605Z,9.07
2022-10-01T02:43:32.490Z,9.47
2022-10-01T02:46:10.226Z,12.20
2022-10-01T02:48:37.133Z,10.00
2022-10-01T02:51:25.773Z,11.40
2022-10-01T02:53:59.079Z,8.63
2022-10-01T02:56:48.803Z,11.80
2022-10-01T02:59:16.128Z,9.53
2022-10-01T03:01:42.886Z,8.77
2022-10-01T03:04:09.506Z,10.10
2022-10-01T03:06:36.122Z,10.63
2022-10-01T03:09:03.143Z,9.40
2022-10-01T03:11:30.232Z,10.30
2022-10-01T03:13:57.209Z,10.40
2022-10-01T03:16:23.996Z,12.60
2022-10-01T03:18:50.632Z,9.23
2022-10-01T03:21:17.409Z,9.30
2022-10-01T03:23:43.989Z,10.80
2022-10-01T03:26:10.568Z,9.80
2022-10-01T03:28:37.171Z,11.77
2022-10-01T03:31:08.437Z,10.87
2022-10-01T03:33:35.953Z,11.53
2022-10-01T03:36:05.738Z,9.57
2022-10-01T03:38:32.307Z,13.03
2022-10-01T03:40:58.886Z,9.77
2022-10-01T03:43:28.844Z,9.17
2022-10-01T03:45:56.629Z,13.80
2022-10-01T03:48:23.875Z,9.83
2022-10-01T03:50:55.071Z,11.57
2022-10-01T03:53:21.986Z,8.50
2022-10-01T03:55:48.806Z,11.10
2022-10-01T03:58:15.825Z,9.93
2022-10-01T04:00:44.108Z,9.83
2022-10-01T04:03:11.140Z,8.87
2022-10-01T04:05:37.940Z,9.00
2022-10-01T04:08:04.578Z,11.47
2022-10-01T04:10:31.164Z,9.60
2022-10-01T04:12:57.730Z,10.43
2022-10-01T04:15:24.968Z,10.17
2022-10-01T04:17:51.786Z,13.27
2022-10-01T04:20:18.366Z,13.27
2022-10-01T04:22:46.080Z,12.67
2022-10-01T04:25:13.192Z,12.33
2022-10-01T04:27:41.149Z,10.63
2022-10-01T04:30:09.456Z,10.50
2022-10-01T04:32:37.051Z,8.90
2022-10-01T04:35:04.550Z,10.67
2022-10-01T04:37:31.194Z,11.10
2022-10-01T04:40:01.096Z,10.10
2022-10-01T04:42:27.732Z,8.93
2022-10-01T04:44:54.307Z,12.47
2022-10-01T04:47:20.900Z,10.50
2022-10-01T04:49:47.443Z,8.97
2022-10-01T04:52:14.098Z,9.80
2022-10-01T04:54:40.720Z,8.70
2022-10-01T04:57:07.302Z,12.73
2022-10-01T04:59:33.867Z,8.63
2022-10-01T05:02:00.470Z,12.17
2022-10-01T05:04:27.748Z,9.97
2022-10-01T05:06:54.314Z,9.37
2022-10-01T05:09:20.849Z,9.57
2022-10-01T05:11:47.944Z,8.70
2022-10-01T05:14:16.387Z,10.23
2022-10-01T05:16:42.992Z,10.87
2022-10-01T05:19:09.590Z,11.37
2022-10-01T05:21:37.418Z,11.30
2022-10-01T05:24:05.443Z,8.93
2022-10-01T05:26:32.301Z,8.80
2022-10-01T05:29:00.560Z,9.57
2022-10-01T05:31:27.180Z,8.80
2022-10-01T05:33:53.783Z,9.37
2022-10-01T05:36:20.403Z,11.23
2022-10-01T05:38:49.738Z,10.47
2022-10-01T05:41:16.287Z,10.47
2022-10-01T05:43:43.902Z,10.77
2022-10-01T05:46:10.506Z,9.03
2022-10-01T05:48:38.391Z,10.77
2022-10-01T05:51:06.845Z,11.90
2022-10-01T05:53:39.956Z,11.80
2022-10-01T05:56:07.515Z,12.50
2022-10-01T05:58:34.326Z,10.77
2022-10-01T06:01:00.949Z,11.27
2022-10-01T06:03:29.726Z,10.30
2022-10-01T06:05:56.304Z,10.77
2022-10-01T06:08:23.192Z,10.97
2022-10-01T06:10:50.061Z,10.47
2022-10-01T06:13:17.829Z,10.20
2022-10-01T06:15:46.714Z,11.17
2022-10-01T06:18:14.651Z,11.97
2022-10-01T06:20:41.416Z,15.27
2022-10-01T06:23:12.153Z,10.23
2022-10-01T06:25:43.460Z,11.03
2022-10-01T06:28:12.218Z,11.23
2022-10-01T06:30:40.039Z,11.30
2022-10-01T06:33:12.375Z,13.27
2022-10-01T06:35:50.203Z,12.00
2022-10-01T06:38:19.962Z,14.30
2022-10-01T06:40:56.176Z,12.87
2022-10-01T06:43:24.128Z,12.93
2022-10-01T06:45:51.372Z,12.43
2022-10-01T06:48:19.879Z,14.17
2022-10-01T06:50:48.202Z,13.70
2022-10-01T06:53:17.239Z,13.20
2022-10-01T06:55:44.677Z,12.17
2022-10-01T06:58:15.726Z,12.90
2022-10-01T07:00:43.722Z,11.53
2022-10-01T07:03:16.614Z,11.47
2022-10-01T07:05:43.324Z,12.33
2022-10-01T07:08:10.244Z,10.83
2022-10-01T07:10:38.094Z,12.27
2022-10-01T07:13:13.710Z,13.77
2022-10-01T07:15:40.889Z,12.07
2022-10-01T07:18:09.595Z,10.43
2022-10-01T07:20:39.689Z,13.60
2022-10-01T07:23:10.156Z,10.93
2022-10-01T07:25:38.848Z,11.37
2022-10-01T07:28:07.155Z,12.80
2022-10-01T07:30:34.447Z,11.27
2022-10-01T07:33:01.073Z,12.40
2022-10-01T07:35:28.427Z,11.70
2022-10-01T07:37:55.363Z,11.77
2022-10-01T07:40:22.390Z,11.37
2022-10-01T07:42:56.951Z,10.87
2022-10-01T07:45:24.536Z,10.30
2022-10-01T07:47:55.718Z,8.80
2022-10-01T07:50:23.307Z,13.47
2022-10-01T07:52:54.452Z,8.63
2022-10-01T07:55:22.126Z,11.60
2022-10-01T07:57:53.412Z,9.70
2022-10-01T08:00:21.114Z,9.90
2022-10-01T08:02:50.631Z,11.33
2022-10-01T08:05:21.774Z,9.33
2022-10-01T08:07:49.836Z,9.37
2022-10-01T08:10:18.608Z,10.07
2022-10-01T08:12:46.158Z,8.60
2022-10-01T08:15:16.007Z,9.70
2022-10-01T08:17:42.944Z,9.60
2022-10-01T08:20:12.269Z,7.73
2022-10-01T08:22:42.157Z,10.37
2022-10-01T08:25:09.823Z,8.07
2022-10-01T08:27:37.098Z,7.87
2022-10-01T08:30:05.671Z,7.97
2022-10-01T08:32:32.980Z,7.73
2022-10-01T08:34:59.882Z,6.97
2022-10-01T08:37:28.608Z,7.00
2022-10-01T08:39:56.439Z,7.93
2022-10-01T08:42:34.759Z,6.73
2022-10-01T08:45:07.429Z,8.03
2022-10-01T08:47:45.144Z,7.23
2022-10-01T08:50:31.051Z,5.77
2022-10-01T08:53:02.450Z,5.97
2022-10-01T08:55:36.414Z,6.33
2022-10-01T08:58:10.741Z,6.63
2022-10-01T09:00:43.341Z,6.10
2022-10-01T09:03:14.316Z,6.63
2022-10-01T09:05:55.072Z,6.77
2022-10-01T09:08:44.957Z,8.23
2022-10-01T09:11:26.561Z,6.90
2022-10-01T09:13:57.432Z,7.17
2022-10-01T09:16:42.103Z,6.03
2022-10-01T09:19:20.748Z,5.87
2022-10-01T09:22:03.998Z,6.00
2022-10-01T09:24:43.877Z,6.23
2022-10-01T09:27:17.224Z,6.17
2022-10-01T09:30:02.481Z,6.13
2022-10-01T09:32:36.938Z,5.87
2022-10-01T09:35:18.549Z,5.80
2022-10-01T09:37:57.185Z,8.97
2022-10-01T09:40:33.652Z,6.80
2022-10-01T09:43:00.860Z,6.33
2022-10-01T09:45:27.851Z,6.00
2022-10-01T09:48:04.042Z,6.80
2022-10-01T09:50:37.135Z,6.20
2022-10-01T09:53:05.862Z,6.97
2022-10-01T09:55:40.889Z,6.50
2022-10-01T09:58:24.350Z,6.97
2022-10-01T10:00:52.533Z,7.57
2022-10-01T10:03:30.668Z,6.97
2022-10-01T10:06:02.042Z,7.40
2022-10-01T10:08:37.060Z,5.63
2022-10-01T10:11:08.239Z,6.33
2022-10-01T10:13:39.371Z,9.70
2022-10-01T10:16:29.391Z,7.70
2022-10-01T10:19:14.810Z,6.80
2022-10-01T10:21:52.524Z,6.30
2022-10-01T10:24:39.769Z,7.90
2022-10-01T10:27:26.693Z,7.77
2022-10-01T10:30:24.484Z,5.53
2022-10-01T10:32:53.624Z,5.00
2022-10-01T10:35:28.889Z,5.20
2022-10-01T10:37:59.596Z,5.03
2022-10-01T10:40:44.040Z,6.00
2022-10-01T10:43:23.124Z,5.37
2022-10-01T10:45:56.380Z,5.87
2022-10-01T10:48:37.121Z,4.50
2022-10-01T10:51:05.561Z,4.30
2022-10-01T10:53:44.132Z,4.87
2022-10-01T10:56:21.933Z,3.93
2022-10-01T10:58:50.472Z,5.87
2022-10-01T11:01:22.551Z,4.10
2022-10-01T11:03:55.289Z,3.77
2022-10-01T11:06:22.578Z,6.57
2022-10-01T11:08:58.951Z,3.97
2022-10-01T11:11:55.173Z,3.47
2022-10-01T11:14:24.753Z,3.20
2022-10-01T11:17:13.037Z,2.87
2022-10-01T11:20:08.136Z,2.90
2022-10-01T11:22:46.604Z,4.23
2022-10-01T11:25:47.601Z,3.70
2022-10-01T11:28:36.926Z,4.47
2022-10-01T11:31:15.562Z,2.73
2022-10-01T11:33:45.249Z,2.80
2022-10-01T11:36:38.589Z,2.63
2022-10-01T11:39:16.606Z,2.50
2022-10-01T11:41:52.820Z,3.53
2022-10-01T11:44:39.498Z,2.73
2022-10-01T11:47:15.363Z,3.00
2022-10-01T11:50:04.440Z,2.63
2022-10-01T11:52:39.307Z,2.97
2022-10-01T11:55:29.973Z,3.20
2022-10-01T11:58:21.252Z,2.27
2022-10-01T12:01:06.603Z,2.30
2022-10-01T12:03:48.846Z,3.90
2022-10-01T12:06:23.143Z,2.27
2022-10-01T12:09:02.284Z,2.87
2022-10-01T12:11:35.752Z,1.80
2022-10-01T12:14:11.433Z,1.93
2022-10-01T12:16:46.770Z,1.70
2022-10-01T12:19:28.360Z,2.20
2022-10-01T12:22:04.145Z,2.07
2022-10-01T12:24:45.055Z,1.70
2022-10-01T12:27:39.900Z,1.60
2022-10-01T12:30:15.860Z,3.87
2022-10-01T12:33:04.821Z,2.10
2022-10-01T12:35:43.864Z,1.53
2022-10-01T12:38:31.352Z,1.00
2022-10-01T12:41:16.137Z,1.37
2022-10-01T12:43:52.056Z,1.87
2022-10-01T12:46:25.788Z,1.00
2022-10-01T12:49:36.032Z,1.40
2022-10-01T12:52:27.274Z,1.70
2022-10-01T12:55:17.912Z,1.10
2022-10-01T12:58:01.509Z,2.23
2022-10-01T13:00:35.137Z,1.10
2022-10-01T13:03:04.849Z,1.50
2022-10-01T13:05:40.188Z,1.57
2022-10-01T13:08:28.372Z,1.30
2022-10-01T13:11:31.454Z,1.20
2022-10-01T13:13:58.437Z,1.20
2022-10-01T13:16:37.651Z,1.27
2022-10-01T13:19:25.881Z,3.13
2022-10-01T13:22:14.502Z,1.23
2022-10-01T13:24:45.457Z,2.30
2022-10-01T13:27:17.857Z,0.70
2022-10-01T13:29:59.940Z,1.53
2022-10-01T13:32:29.781Z,1.00
2022-10-01T13:34:58.974Z,1.13
2022-10-01T13:37:39.840Z,0.97
2022-10-01T13:40:32.273Z,2.03
2022-10-01T13:43:20.119Z,1.20
2022-10-01T13:45:49.697Z,0.83
2022-10-01T13:48:20.583Z,1.80
2022-10-01T13:51:02.976Z,1.00
2022-10-01T13:53:36.174Z,1.67
2022-10-01T13:56:03.412Z,1.20
2022-10-01T13:58:29.975Z,1.00
2022-10-01T14:01:00.198Z,1.60
2022-10-01T14:03:42.108Z,1.00
2022-10-01T14:06:36.452Z,0.80
2022-10-01T14:09:20.208Z,2.77
2022-10-01T14:12:13.800Z,1.07
2022-10-01T14:15:20.711Z,0.87
2022-10-01T14:17:53.063Z,0.80
2022-10-01T14:20:24.059Z,0.70
2022-10-01T14:23:12.569Z,1.53
2022-10-01T14:26:03.470Z,0.70
2022-10-01T14:28:51.369Z,2.83
2022-10-01T14:31:47.432Z,0.77
2022-10-01T14:34:38.759Z,1.43
2022-10-01T14:37:17.109Z,0.77
2022-10-01T14:39:44.446Z,1.60
2022-10-01T14:42:18.192Z,1.17
2022-10-01T14:44:46.941Z,0.70
2022-10-01T14:47:13.503Z,1.10
2022-10-01T14:49:40.185Z,2.67
2022-10-01T14:52:19.539Z,2.47
2022-10-01T14:54:51.691Z,5.40
2022-10-01T14:57:27.136Z,4.40
2022-10-01T14:59:55.007Z,0.73
2022-10-01T15:02:26.459Z,1.17
2022-10-01T15:04:56.681Z,1.77
2022-10-01T15:07:27.784Z,1.43
2022-10-01T15:10:04.797Z,1.07
2022-10-01T15:12:31.372Z,4.27
2022-10-01T15:14:57.998Z,2.10
2022-10-01T15:17:27.452Z,0.80
2022-10-01T15:19:56.198Z,0.80
2022-10-01T15:22:28.983Z,1.00
2022-10-01T15:25:01.228Z,2.03
2022-10-01T15:27:28.159Z,0.87
2022-10-01T15:29:58.640Z,1.33
2022-10-01T15:32:27.919Z,2.00
2022-10-01T15:34:58.088Z,1.37
2022-10-01T15:37:35.296Z,2.20
2022-10-01T15:40:04.351Z,1.00
2022-10-01T15:42:34.159Z,3.30
2022-10-01T15:45:06.982Z,1.73
2022-10-01T15:47:38.320Z,4.00
2022-10-01T15:50:10.985Z,4.23
2022-10-01T15:52:50.491Z,3.53
2022-10-01T15:55:27.929Z,3.00
2022-10-01T15:58:06.757Z,2.87
2022-10-01T16:00:47.583Z,1.60
2022-10-01T16:03:27.248Z,1.53
2022-10-01T16:05:55.121Z,1.97
2022-10-01T16:08:25.620Z,3.13
2022-10-01T16:11:13.845Z,1.67
2022-10-01T16:13:44.838Z,3.67
2022-10-01T16:16:19.277Z,1.67
2022-10-01T16:18:58.932Z,2.07
2022-10-01T16:21:26.406Z,3.13
2022-10-01T16:23:56.390Z,2.93
2022-10-01T16:26:34.805Z,2.87
2022-10-01T16:29:19.470Z,1.97
2022-10-01T16:31:50.730Z,2.43
2022-10-01T16:34:20.042Z,7.03
2022-10-01T16:39:34.924Z,1.83
2022-10-01T16:42:22.929Z,1.50
2022-10-01T16:44:50.233Z,2.50
2022-10-01T16:47:16.909Z,2.50
2022-10-01T16:49:44.963Z,3.20
2022-10-01T16:52:29.320Z,2.63
2022-10-01T16:54:56.311Z,1.97
2022-10-01T16:57:27.787Z,2.33
2022-10-01T16:59:55.923Z,4.53
2022-10-01T17:02:22.965Z,1.70
2022-10-01T17:04:49.619Z,1.97
2022-10-01T17:07:19.867Z,2.30
2022-10-01T17:09:50.064Z,2.47
2022-10-01T17:12:24.289Z,3.93
2022-10-01T17:14:51.096Z,2.20
2022-10-01T17:17:27.578Z,2.70
2022-10-01T17:19:56.803Z,3.50
2022-10-01T17:22:23.387Z,3.97
2022-10-01T17:24:50.092Z,2.97
2022-10-01T17:27:16.891Z,1.30
2022-10-01T17:29:44.890Z,2.50
2022-10-01T17:32:23.928Z,1.37
2022-10-01T17:34:53.634Z,1.87
2022-10-01T17:37:22.993Z,1.63
2022-10-01T17:39:49.827Z,3.03
2022-10-01T17:42:18.310Z,1.43
2022-10-01T17:44:45.712Z,2.10
2022-10-01T17:47:12.676Z,2.13
2022-10-01T17:49:43.252Z,2.70
2022-10-01T17:52:11.747Z,1.70
2022-10-01T17:54:39.777Z,3.73
2022-10-01T17:57:10.844Z,2.13
2022-10-01T17:59:38.373Z,5.40
2022-10-01T18:02:23.600Z,1.83
2022-10-01T18:04:53.913Z,2.10
2022-10-01T18:07:20.682Z,3.23
2022-10-01T18:09:49.374Z,1.50
2022-10-01T18:12:16.125Z,2.20
2022-10-01T18:14:44.046Z,1.97
2022-10-01T18:17:10.888Z,1.30
2022-10-01T18:19:53.935Z,1.37
2022-10-01T18:22:22.050Z,3.27
2022-10-01T18:24:48.954Z,2.77
2022-10-01T18:27:15.672Z,1.73
2022-10-01T18:29:42.385Z,5.33
2022-10-01T18:32:18.651Z,2.80
2022-10-01T18:35:12.348Z,2.03
2022-10-01T18:37:40.194Z,2.67
2022-10-01T18:40:18.363Z,2.63
2022-10-01T18:43:22.138Z,1.67
2022-10-01T18:46:21.854Z,2.37
2022-10-01T18:49:06.639Z,1.13
2022-10-01T18:51:57.513Z,1.50
2022-10-01T18:54:41.983Z,4.67
2022-10-01T18:57:11.431Z,1.73
2022-10-01T18:59:52.417Z,2.37
2022-10-01T19:02:24.990Z,1.63
2022-10-01T19:05:10.875Z,4.20
2022-10-01T19:08:03.703Z,1.37
2022-10-01T19:10:50.378Z,2.80
2022-10-01T19:13:24.468Z,1.70
2022-10-01T19:16:05.507Z,1.93
2022-10-01T19:19:01.856Z,1.13
2022-10-01T19:22:00.251Z,0.97
2022-10-01T19:24:57.812Z,2.63
2022-10-01T19:27:49.165Z,2.70
2022-10-01T19:30:19.081Z,2.33
2022-10-01T19:32:57.901Z,3.00
2022-10-01T19:35:31.423Z,2.03
2022-10-01T19:38:12.835Z,2.97
2022-10-01T19:40:41.776Z,2.57
2022-10-01T19:43:23.698Z,2.77
2022-10-01T19:45:50.338Z,3.80
2022-10-01T19:48:23.369Z,1.93
2022-10-01T19:50:55.578Z,1.37
2022-10-01T19:53:28.311Z,5.30
2022-10-01T19:55:58.614Z,1.90
2022-10-01T19:58:25.717Z,1.27
2022-10-01T20:00:58.124Z,1.27
2022-10-01T20:03:39.368Z,2.37
2022-10-01T20:06:36.283Z,2.40
2022-10-01T20:09:18.065Z,3.80
2022-10-01T20:12:07.291Z,3.30
2022-10-01T20:15:12.511Z,2.23
2022-10-01T20:17:47.781Z,2.20
2022-10-01T20:20:23.418Z,7.10
2022-10-01T20:23:06.138Z,1.63
2022-10-01T20:25:47.615Z,3.23
2022-10-01T20:28:44.549Z,3.50
2022-10-01T20:31:16.107Z,1.77
2022-10-01T20:34:10.574Z,4.03
2022-10-01T20:36:57.377Z,3.63
2022-10-01T20:39:30.986Z,5.57
2022-10-01T20:41:59.265Z,1.17
2022-10-01T20:44:34.259Z,2.60
2022-10-01T20:47:11.140Z,4.70
2022-10-01T20:49:46.427Z,2.10
2022-10-01T20:52:52.414Z,2.37
2022-10-01T20:55:28.728Z,3.17
2022-10-01T20:58:23.540Z,4.47
2022-10-01T21:00:56.107Z,2.03
2022-10-01T21:03:40.662Z,2.60
2022-10-01T21:06:13.630Z,3.40
2022-10-01T21:09:25.212Z,2.20
2022-10-01T21:12:04.811Z,3.10
2022-10-01T21:14:40.725Z,4.47
2022-10-01T21:17:45.076Z,3.77
2022-10-01T21:20:50.649Z,1.17
2022-10-01T21:23:46.295Z,3.00
2022-10-01T21:26:13.256Z,2.43
2022-10-01T21:29:01.938Z,2.13
2022-10-01T21:32:06.226Z,2.03
2022-10-01T21:34:54.998Z,3.87
2022-10-01T21:37:32.792Z,5.77
2022-10-01T21:40:27.450Z,1.43
2022-10-01T21:43:23.051Z,3.00
2022-10-01T21:46:27.655Z,3.27
2022-10-01T21:49:03.780Z,6.27
2022-10-01T21:51:46.211Z,3.37
2022-10-01T21:54:20.572Z,3.77
2022-10-01T21:57:32.848Z,2.57
2022-10-01T22:00:11.211Z,2.83
2022-10-01T22:02:41.453Z,4.70
2022-10-01T22:05:23.661Z,4.00
2022-10-01T22:07:53.440Z,2.00
2022-10-01T22:10:40.962Z,5.97
2022-10-01T22:13:17.581Z,2.97
2022-10-01T22:15:49.538Z,2.30
2022-10-01T22:18:31.490Z,4.20
2022-10-01T22:21:00.979Z,1.77
2022-10-01T22:23:33.512Z,3.00
2022-10-01T22:26:08.366Z,1.93
2022-10-01T22:28:38.924Z,3.27
2022-10-01T22:31:10.795Z,2.40
2022-10-01T22:33:43.782Z,2.73
2022-10-01T22:36:58.422Z,1.40
2022-10-01T22:39:32.618Z,5.60
2022-10-01T22:42:35.631Z,3.33
2022-10-01T22:45:11.753Z,4.33
2022-10-01T22:48:03.092Z,1.83
2022-10-01T22:50:48.168Z,2.80
2022-10-01T22:53:32.660Z,2.13
2022-10-01T22:55:59.403Z,4.27
2022-10-01T22:58:51.892Z,3.93
2022-10-01T23:01:49.537Z,2.53
2022-10-01T23:04:49.819Z,8.37
2022-10-01T23:07:38.720Z,4.30
2022-10-01T23:10:13.166Z,5.20
2022-10-01T23:12:45.455Z,10.70
2022-10-01T23:15:21.224Z,4.90
2022-10-01T23:18:23.124Z,3.33
2022-10-01T23:20:57.271Z,4.73
2022-10-01T23:23:34.733Z,3.37
2022-10-01T23:26:13.235Z,6.13
2022-10-01T23:28:49.151Z,3.93
2022-10-01T23:31:26.369Z,5.27
2022-10-01T23:34:01.065Z,3.50
2022-10-01T23:36:47.165Z,4.93
2022-10-01T23:39:32.204Z,7.60
2022-10-01T23:42:09.017Z,4.17
2022-10-01T23:44:47.745Z,5.43
2022-10-01T23:47:25.116Z,6.17
2022-10-01T23:49:56.117Z,4.97
2022-10-01T23:52:35.726Z,3.63
2022-10-01T23:55:29.993Z,4.27
2022-10-01T23:58:03.181Z,3.10
